sensor_id;sensor_type;location;lat;lon;timestamp;pressure;altitude;pressure_sealevel;temperature;humidity
11605;BME280;5858;43.076;25.626;2022-12-10T00:01:42;98509.16;;;11.44;99.74
11605;BME280;5858;43.076;25.626;2022-12-10T00:04:09;98496.59;;;11.18;99.66
11605;BME280;5858;43.076;25.626;2022-12-10T00:06:38;98521.94;;;11.42;100.00
11605;BME280;5858;43.076;25.626;2022-12-10T00:09:07;98589.09;;;11.80;100.00
11605;BME280;5858;43.076;25.626;2022-12-10T00:11:37;98532.22;;;11.52;99.76
11605;BME280;5858;43.076;25.626;2022-12-10T00:14:05;98495.78;;;11.24;99.67
11605;BME280;5858;43.076;25.626;2022-12-10T00:16:33;98558.16;;;11.64;99.89
11605;BME280;5858;43.076;25.626;2022-12-10T00:19:04;98463.25;;;10.88;100.00
11605;BME280;5858;43.076;25.626;2022-12-10T00:21:33;98546.84;;;11.56;100.00
11605;BME280;5858;43.076;25.626;2022-12-10T00:24:01;98542.94;;;11.52;99.97
11605;BME280;5858;43.076;25.626;2022-12-10T00:26:30;98581.03;;;11.93;99.22
11605;BME280;5858;43.076;25.626;2022-12-10T00:29:00;98536.31;;;11.61;99.01
11605;BME280;5858;43.076;25.626;2022-12-10T00:31:29;98495.56;;;11.46;98.74
11605;BME280;5858;43.076;25.626;2022-12-10T00:34:05;98396.97;;;10.77;99.33
11605;BME280;5858;43.076;25.626;2022-12-10T00:36:36;98582.72;;;11.88;99.35
11605;BME280;5858;43.076;25.626;2022-12-10T00:39:20;98579.84;;;11.83;99.61
11605;BME280;5858;43.076;25.626;2022-12-10T00:41:56;98450.06;;;11.19;98.85
11605;BME280;5858;43.076;25.626;2022-12-10T00:44:24;98522.72;;;11.62;98.78
11605;BME280;5858;43.076;25.626;2022-12-10T00:46:55;98477.66;;;11.40;98.96
11605;BME280;5858;43.076;25.626;2022-12-10T00:49:27;98566.22;;;11.91;99.51
11605;BME280;5858;43.076;25.626;2022-12-10T00:52:00;98451.47;;;11.28;99.24
11605;BME280;5858;43.076;25.626;2022-12-10T00:54:41;98560.09;;;12.22;98.11
11605;BME280;5858;43.076;25.626;2022-12-10T00:57:09;98552.50;;;12.19;98.01
11605;BME280;5858;43.076;25.626;2022-12-10T00:59:38;98488.69;;;11.89;97.35
11605;BME280;5858;43.076;25.626;2022-12-10T01:02:06;98463.34;;;11.65;97.60
11605;BME280;5858;43.076;25.626;2022-12-10T01:04:35;98519.97;;;12.02;97.40
11605;BME280;5858;43.076;25.626;2022-12-10T01:07:10;98402.66;;;11.33;97.66
11605;BME280;5858;43.076;25.626;2022-12-10T01:09:40;98390.91;;;11.34;97.43
11605;BME280;5858;43.076;25.626;2022-12-10T01:12:08;98480.44;;;11.84;97.85
11605;BME280;5858;43.076;25.626;2022-12-10T01:14:38;98534.06;;;12.29;97.63
11605;BME280;5858;43.076;25.626;2022-12-10T01:17:09;98538.88;;;12.20;97.60
11605;BME280;5858;43.076;25.626;2022-12-10T01:19:40;98549.34;;;12.35;97.83
11605;BME280;5858;43.076;25.626;2022-12-10T01:22:16;98530.63;;;12.15;97.98
11605;BME280;5858;43.076;25.626;2022-12-10T01:24:47;98498.69;;;12.07;97.61
11605;BME280;5858;43.076;25.626;2022-12-10T01:27:14;98543.16;;;12.35;97.79
11605;BME280;5858;43.076;25.626;2022-12-10T01:29:45;98515.97;;;12.18;97.80
11605;BME280;5858;43.076;25.626;2022-12-10T01:32:20;98492.19;;;11.90;98.10
11605;BME280;5858;43.076;25.626;2022-12-10T01:34:49;98387.81;;;11.44;97.92
11605;BME280;5858;43.076;25.626;2022-12-10T01:37:29;98555.75;;;12.34;98.19
11605;BME280;5858;43.076;25.626;2022-12-10T01:40:00;98445.78;;;11.89;98.03
11605;BME280;5858;43.076;25.626;2022-12-10T01:42:31;98531.78;;;12.39;98.06
11605;BME280;5858;43.076;25.626;2022-12-10T01:45:12;98525.56;;;12.45;97.42
11605;BME280;5858;43.076;25.626;2022-12-10T01:47:44;98547.88;;;12.39;97.85
11605;BME280;5858;43.076;25.626;2022-12-10T01:50:13;98425.41;;;11.68;97.82
11605;BME280;5858;43.076;25.626;2022-12-10T01:52:44;98454.47;;;11.78;98.13
11605;BME280;5858;43.076;25.626;2022-12-10T01:55:46;98537.19;;;12.33;98.19
11605;BME280;5858;43.076;25.626;2022-12-10T01:58:16;98423.63;;;11.56;98.71
11605;BME280;5858;43.076;25.626;2022-12-10T02:00:54;98387.41;;;11.33;98.74
11605;BME280;5858;43.076;25.626;2022-12-10T02:03:38;98414.31;;;11.58;98.89
11605;BME280;5858;43.076;25.626;2022-12-10T02:06:26;98521.31;;;12.24;98.96
11605;BME280;5858;43.076;25.626;2022-12-10T02:09:04;98519.03;;;12.28;98.53
11605;BME280;5858;43.076;25.626;2022-12-10T02:11:41;98526.84;;;12.29;98.98
11605;BME280;5858;43.076;25.626;2022-12-10T02:14:13;98532.66;;;12.33;98.73
11605;BME280;5858;43.076;25.626;2022-12-10T02:16:51;98516.50;;;12.40;98.12
11605;BME280;5858;43.076;25.626;2022-12-10T02:19:28;98536.72;;;12.42;98.06
11605;BME280;5858;43.076;25.626;2022-12-10T02:22:03;98541.88;;;12.44;98.02
11605;BME280;5858;43.076;25.626;2022-12-10T02:24:35;98523.88;;;12.51;97.72
11605;BME280;5858;43.076;25.626;2022-12-10T02:27:06;98415.47;;;11.89;97.16
11605;BME280;5858;43.076;25.626;2022-12-10T02:29:44;98540.09;;;12.63;97.16
11605;BME280;5858;43.076;25.626;2022-12-10T02:32:19;98545.31;;;12.57;97.46
11605;BME280;5858;43.076;25.626;2022-12-10T02:34:52;98537.47;;;12.56;97.66
11605;BME280;5858;43.076;25.626;2022-12-10T02:37:24;98459.53;;;12.06;97.79
11605;BME280;5858;43.076;25.626;2022-12-10T02:39:59;98547.72;;;12.66;97.67
11605;BME280;5858;43.076;25.626;2022-12-10T02:42:30;98536.09;;;12.78;96.64
11605;BME280;5858;43.076;25.626;2022-12-10T02:45:10;98455.03;;;12.38;96.57
11605;BME280;5858;43.076;25.626;2022-12-10T02:47:41;98488.13;;;12.57;96.84
11605;BME280;5858;43.076;25.626;2022-12-10T02:50:11;98461.56;;;12.49;96.09
11605;BME280;5858;43.076;25.626;2022-12-10T02:52:41;98480.25;;;12.62;95.98
11605;BME280;5858;43.076;25.626;2022-12-10T02:55:14;98413.78;;;12.33;95.79
11605;BME280;5858;43.076;25.626;2022-12-10T02:57:47;98507.13;;;12.87;95.89
11605;BME280;5858;43.076;25.626;2022-12-10T03:00:22;98424.31;;;12.27;95.76
11605;BME280;5858;43.076;25.626;2022-12-10T03:03:16;98502.91;;;12.98;95.35
11605;BME280;5858;43.076;25.626;2022-12-10T03:05:49;98387.28;;;12.11;95.27
11605;BME280;5858;43.076;25.626;2022-12-10T03:08:30;98468.72;;;12.86;94.88
11605;BME280;5858;43.076;25.626;2022-12-10T03:11:05;98474.03;;;12.93;94.10
11605;BME280;5858;43.076;25.626;2022-12-10T03:13:39;98510.19;;;13.15;94.03
11605;BME280;5858;43.076;25.626;2022-12-10T03:16:10;98504.22;;;13.13;94.20
11605;BME280;5858;43.076;25.626;2022-12-10T03:18:42;98404.66;;;12.40;94.63
11605;BME280;5858;43.076;25.626;2022-12-10T03:21:15;98498.84;;;13.13;94.45
11605;BME280;5858;43.076;25.626;2022-12-10T03:23:46;98494.31;;;13.14;94.24
11605;BME280;5858;43.076;25.626;2022-12-10T03:26:20;98445.00;;;12.83;94.08
11605;BME280;5858;43.076;25.626;2022-12-10T03:28:54;98445.75;;;12.90;94.34
11605;BME280;5858;43.076;25.626;2022-12-10T03:31:28;98414.91;;;12.75;94.43
11605;BME280;5858;43.076;25.626;2022-12-10T03:34:10;98443.13;;;12.84;94.37
11605;BME280;5858;43.076;25.626;2022-12-10T03:36:44;98474.16;;;13.05;94.66
11605;BME280;5858;43.076;25.626;2022-12-10T03:39:17;98497.31;;;12.99;95.25
11605;BME280;5858;43.076;25.626;2022-12-10T03:41:47;98466.75;;;13.00;95.11
11605;BME280;5858;43.076;25.626;2022-12-10T03:44:30;98412.75;;;12.58;95.08
11605;BME280;5858;43.076;25.626;2022-12-10T03:47:04;98473.59;;;12.96;95.44
11605;BME280;5858;43.076;25.626;2022-12-10T03:49:35;98355.88;;;12.18;95.03
11605;BME280;5858;43.076;25.626;2022-12-10T03:52:03;98401.50;;;12.50;95.30
11605;BME280;5858;43.076;25.626;2022-12-10T03:54:31;98341.31;;;12.08;95.09
11605;BME280;5858;43.076;25.626;2022-12-10T03:57:07;98316.38;;;12.07;94.62
11605;BME280;5858;43.076;25.626;2022-12-10T03:59:35;98473.63;;;13.14;94.19
11605;BME280;5858;43.076;25.626;2022-12-10T04:02:03;98444.28;;;12.95;94.31
11605;BME280;5858;43.076;25.626;2022-12-10T04:04:34;98434.50;;;12.75;94.44
11605;BME280;5858;43.076;25.626;2022-12-10T04:07:04;98465.25;;;13.04;94.79
11605;BME280;5858;43.076;25.626;2022-12-10T04:09:31;98394.69;;;12.72;94.55
11605;BME280;5858;43.076;25.626;2022-12-10T04:11:59;98357.28;;;12.52;94.23
11605;BME280;5858;43.076;25.626;2022-12-10T04:14:27;98462.91;;;13.14;94.48
11605;BME280;5858;43.076;25.626;2022-12-10T04:17:16;98418.97;;;12.84;94.40
11605;BME280;5858;43.076;25.626;2022-12-10T04:19:44;98464.13;;;13.18;94.20
11605;BME280;5858;43.076;25.626;2022-12-10T04:22:15;98364.41;;;12.65;94.15
11605;BME280;5858;43.076;25.626;2022-12-10T04:25:00;98474.22;;;13.23;94.33
11605;BME280;5858;43.076;25.626;2022-12-10T04:27:47;98480.22;;;13.25;94.20
11605;BME280;5858;43.076;25.626;2022-12-10T04:30:18;98420.28;;;13.00;94.01
11605;BME280;5858;43.076;25.626;2022-12-10T04:32:50;98374.81;;;12.80;93.54
11605;BME280;5858;43.076;25.626;2022-12-10T04:35:20;98348.31;;;12.65;93.17
11605;BME280;5858;43.076;25.626;2022-12-10T04:37:47;98420.16;;;13.13;93.21
11605;BME280;5858;43.076;25.626;2022-12-10T04:40:15;98471.34;;;13.43;93.64
11605;BME280;5858;43.076;25.626;2022-12-10T04:42:42;98363.69;;;12.76;93.42
11605;BME280;5858;43.076;25.626;2022-12-10T04:45:09;98448.88;;;13.12;93.56
11605;BME280;5858;43.076;25.626;2022-12-10T04:47:37;98400.88;;;12.73;94.54
11605;BME280;5858;43.076;25.626;2022-12-10T04:50:07;98398.69;;;12.88;94.15
11605;BME280;5858;43.076;25.626;2022-12-10T04:52:34;98427.22;;;13.07;94.41
11605;BME280;5858;43.076;25.626;2022-12-10T04:55:01;98345.25;;;12.61;95.00
11605;BME280;5858;43.076;25.626;2022-12-10T04:57:29;98410.97;;;13.02;94.84
11605;BME280;5858;43.076;25.626;2022-12-10T04:59:56;98441.81;;;13.18;94.99
11605;BME280;5858;43.076;25.626;2022-12-10T05:02:23;98420.00;;;13.08;94.87
11605;BME280;5858;43.076;25.626;2022-12-10T05:04:51;98470.44;;;13.31;95.31
11605;BME280;5858;43.076;25.626;2022-12-10T05:07:21;98478.28;;;13.32;95.30
11605;BME280;5858;43.076;25.626;2022-12-10T05:09:53;98481.56;;;13.34;95.19
11605;BME280;5858;43.076;25.626;2022-12-10T05:12:21;98477.84;;;13.35;95.19
11605;BME280;5858;43.076;25.626;2022-12-10T05:14:48;98414.75;;;12.95;95.17
11605;BME280;5858;43.076;25.626;2022-12-10T05:17:15;98449.66;;;13.19;94.75
11605;BME280;5858;43.076;25.626;2022-12-10T05:19:46;98486.19;;;13.45;95.16
11605;BME280;5858;43.076;25.626;2022-12-10T05:22:15;98439.63;;;13.33;94.59
11605;BME280;5858;43.076;25.626;2022-12-10T05:25:01;98477.91;;;13.47;95.10
11605;BME280;5858;43.076;25.626;2022-12-10T05:27:31;98486.13;;;13.52;94.87
11605;BME280;5858;43.076;25.626;2022-12-10T05:29:58;98481.81;;;13.51;95.46
11605;BME280;5858;43.076;25.626;2022-12-10T05:32:25;98448.41;;;13.15;95.70
11605;BME280;5858;43.076;25.626;2022-12-10T05:34:53;98486.19;;;13.45;95.80
11605;BME280;5858;43.076;25.626;2022-12-10T05:37:20;98511.59;;;13.49;95.39
11605;BME280;5858;43.076;25.626;2022-12-10T05:39:47;98483.53;;;13.45;95.50
11605;BME280;5858;43.076;25.626;2022-12-10T05:42:17;98385.56;;;12.80;95.09
11605;BME280;5858;43.076;25.626;2022-12-10T05:44:45;98508.84;;;13.56;95.37
11605;BME280;5858;43.076;25.626;2022-12-10T05:47:12;98488.28;;;13.43;95.71
11605;BME280;5858;43.076;25.626;2022-12-10T05:49:39;98486.56;;;13.49;95.80
11605;BME280;5858;43.076;25.626;2022-12-10T05:52:06;98447.00;;;13.13;95.78
11605;BME280;5858;43.076;25.626;2022-12-10T05:54:34;98465.81;;;13.13;96.42
11605;BME280;5858;43.076;25.626;2022-12-10T05:57:01;98423.19;;;12.98;96.74
11605;BME280;5858;43.076;25.626;2022-12-10T05:59:30;98509.94;;;13.48;97.22
11605;BME280;5858;43.076;25.626;2022-12-10T06:01:57;98499.03;;;13.43;97.50
11605;BME280;5858;43.076;25.626;2022-12-10T06:04:25;98508.44;;;13.34;97.65
11605;BME280;5858;43.076;25.626;2022-12-10T06:06:52;98483.91;;;13.24;97.71
11605;BME280;5858;43.076;25.626;2022-12-10T06:09:19;98450.78;;;13.05;97.78
11605;BME280;5858;43.076;25.626;2022-12-10T06:11:47;98459.91;;;13.04;98.26
11605;BME280;5858;43.076;25.626;2022-12-10T06:14:14;98470.41;;;13.06;98.32
11605;BME280;5858;43.076;25.626;2022-12-10T06:16:43;98499.00;;;13.25;98.82
11605;BME280;5858;43.076;25.626;2022-12-10T06:19:13;98474.97;;;13.05;98.92
11605;BME280;5858;43.076;25.626;2022-12-10T06:21:40;98427.72;;;12.73;99.40
11605;BME280;5858;43.076;25.626;2022-12-10T06:24:07;98345.94;;;12.25;99.30
11605;BME280;5858;43.076;25.626;2022-12-10T06:26:37;98499.66;;;13.20;99.04
11605;BME280;5858;43.076;25.626;2022-12-10T06:29:04;98497.91;;;13.33;99.35
11605;BME280;5858;43.076;25.626;2022-12-10T06:31:37;98386.47;;;12.67;99.27
11605;BME280;5858;43.076;25.626;2022-12-10T06:34:09;98498.44;;;13.41;98.69
11605;BME280;5858;43.076;25.626;2022-12-10T06:36:36;98490.97;;;13.43;98.53
11605;BME280;5858;43.076;25.626;2022-12-10T06:39:03;98496.50;;;13.48;98.61
11605;BME280;5858;43.076;25.626;2022-12-10T06:41:30;98435.66;;;13.11;98.37
11605;BME280;5858;43.076;25.626;2022-12-10T06:44:06;98510.34;;;13.70;97.54
11605;BME280;5858;43.076;25.626;2022-12-10T06:46:37;98352.53;;;12.79;97.56
11605;BME280;5858;43.076;25.626;2022-12-10T06:49:08;98456.56;;;13.52;96.90
11605;BME280;5858;43.076;25.626;2022-12-10T06:51:36;98454.63;;;13.59;97.15
11605;BME280;5858;43.076;25.626;2022-12-10T06:54:04;98346.88;;;13.06;96.10
11605;BME280;5858;43.076;25.626;2022-12-10T06:56:34;98398.94;;;13.48;95.93
11605;BME280;5858;43.076;25.626;2022-12-10T06:59:08;98466.63;;;14.11;95.74
11605;BME280;5858;43.076;25.626;2022-12-10T07:01:41;98399.16;;;13.65;95.76
11605;BME280;5858;43.076;25.626;2022-12-10T07:04:10;98388.31;;;13.71;95.61
11605;BME280;5858;43.076;25.626;2022-12-10T07:06:37;98446.97;;;14.11;95.08
11605;BME280;5858;43.076;25.626;2022-12-10T07:09:04;98407.50;;;13.93;95.11
11605;BME280;5858;43.076;25.626;2022-12-10T07:11:31;98436.34;;;14.16;95.57
11605;BME280;5858;43.076;25.626;2022-12-10T07:13:59;98460.09;;;14.37;95.49
11605;BME280;5858;43.076;25.626;2022-12-10T07:16:28;98472.09;;;14.53;95.36
11605;BME280;5858;43.076;25.626;2022-12-10T07:19:00;98474.22;;;14.63;93.01
11605;BME280;5858;43.076;25.626;2022-12-10T07:21:31;98480.25;;;14.76;92.21
11605;BME280;5858;43.076;25.626;2022-12-10T07:24:00;98377.22;;;14.28;91.77
11605;BME280;5858;43.076;25.626;2022-12-10T07:26:29;98450.81;;;14.63;91.54
11605;BME280;5858;43.076;25.626;2022-12-10T07:28:57;98476.41;;;14.96;90.02
11605;BME280;5858;43.076;25.626;2022-12-10T07:31:25;98392.97;;;14.42;90.18
11605;BME280;5858;43.076;25.626;2022-12-10T07:33:53;98466.81;;;15.00;90.11
11605;BME280;5858;43.076;25.626;2022-12-10T07:36:21;98476.53;;;15.01;90.06
11605;BME280;5858;43.076;25.626;2022-12-10T07:38:51;98447.72;;;14.90;89.68
11605;BME280;5858;43.076;25.626;2022-12-10T07:41:20;98467.78;;;15.17;90.32
11605;BME280;5858;43.076;25.626;2022-12-10T07:43:48;98421.94;;;14.94;90.44
11605;BME280;5858;43.076;25.626;2022-12-10T07:46:17;98482.44;;;15.33;89.46
11605;BME280;5858;43.076;25.626;2022-12-10T07:48:46;98386.13;;;14.82;89.04
11605;BME280;5858;43.076;25.626;2022-12-10T07:51:15;98466.25;;;15.56;89.45
11605;BME280;5858;43.076;25.626;2022-12-10T07:53:44;98475.75;;;15.59;87.68
11605;BME280;5858;43.076;25.626;2022-12-10T07:56:15;98487.38;;;15.71;88.23
11605;BME280;5858;43.076;25.626;2022-12-10T07:58:43;98409.91;;;15.31;87.49
11605;BME280;5858;43.076;25.626;2022-12-10T08:01:13;98439.50;;;15.55;86.53
11605;BME280;5858;43.076;25.626;2022-12-10T08:03:40;98461.50;;;15.98;87.15
11605;BME280;5858;43.076;25.626;2022-12-10T08:06:09;98458.31;;;16.01;86.69
11605;BME280;5858;43.076;25.626;2022-12-10T08:08:39;98417.59;;;15.74;86.93
11605;BME280;5858;43.076;25.626;2022-12-10T08:11:07;98449.16;;;16.02;87.11
11605;BME280;5858;43.076;25.626;2022-12-10T08:13:35;98314.06;;;15.12;86.44
11605;BME280;5858;43.076;25.626;2022-12-10T08:16:03;98443.13;;;15.84;86.95
11605;BME280;5858;43.076;25.626;2022-12-10T08:18:32;98410.91;;;15.77;86.68
11605;BME280;5858;43.076;25.626;2022-12-10T08:21:04;98435.25;;;15.94;87.26
11605;BME280;5858;43.076;25.626;2022-12-10T08:23:55;98438.84;;;15.99;86.30
11605;BME280;5858;43.076;25.626;2022-12-10T08:26:57;98446.03;;;15.94;85.24
11605;BME280;5858;43.076;25.626;2022-12-10T08:29:25;98334.56;;;15.13;85.50
11605;BME280;5858;43.076;25.626;2022-12-10T08:31:53;98440.75;;;15.99;84.71
11605;BME280;5858;43.076;25.626;2022-12-10T08:34:20;98422.19;;;16.02;83.66
11605;BME280;5858;43.076;25.626;2022-12-10T08:36:47;98367.13;;;15.87;81.60
11605;BME280;5858;43.076;25.626;2022-12-10T08:39:14;98434.31;;;16.28;81.94
11605;BME280;5858;43.076;25.626;2022-12-10T08:41:42;98339.19;;;15.64;81.94
11605;BME280;5858;43.076;25.626;2022-12-10T08:44:10;98348.81;;;15.89;81.86
11605;BME280;5858;43.076;25.626;2022-12-10T08:46:39;98421.69;;;16.62;80.68
11605;BME280;5858;43.076;25.626;2022-12-10T08:49:06;98421.88;;;16.89;81.00
11605;BME280;5858;43.076;25.626;2022-12-10T08:51:36;98420.09;;;17.12;78.78
11605;BME280;5858;43.076;25.626;2022-12-10T08:54:04;98278.47;;;16.41;77.31
11605;BME280;5858;43.076;25.626;2022-12-10T08:56:34;98384.91;;;17.28;77.49
11605;BME280;5858;43.076;25.626;2022-12-10T08:59:04;98373.34;;;17.33;77.63
11605;BME280;5858;43.076;25.626;2022-12-10T09:01:31;98333.22;;;17.25;76.67
11605;BME280;5858;43.076;25.626;2022-12-10T09:04:00;98392.78;;;17.69;75.44
11605;BME280;5858;43.076;25.626;2022-12-10T09:06:28;98395.91;;;17.82;74.70
11605;BME280;5858;43.076;25.626;2022-12-10T09:08:55;98288.75;;;17.38;73.62
11605;BME280;5858;43.076;25.626;2022-12-10T09:11:24;98342.75;;;17.71;74.46
11605;BME280;5858;43.076;25.626;2022-12-10T09:13:52;98337.91;;;17.73;74.67
11605;BME280;5858;43.076;25.626;2022-12-10T09:16:20;98347.50;;;17.86;72.25
11605;BME280;5858;43.076;25.626;2022-12-10T09:18:48;98358.94;;;18.15;72.83
11605;BME280;5858;43.076;25.626;2022-12-10T09:21:17;98341.59;;;18.16;71.44
11605;BME280;5858;43.076;25.626;2022-12-10T09:23:44;98357.69;;;18.28;71.99
11605;BME280;5858;43.076;25.626;2022-12-10T09:26:14;98365.50;;;18.24;69.79
11605;BME280;5858;43.076;25.626;2022-12-10T09:28:42;98347.22;;;18.09;70.03
11605;BME280;5858;43.076;25.626;2022-12-10T09:31:11;98345.03;;;18.06;70.94
11605;BME280;5858;43.076;25.626;2022-12-10T09:33:39;98240.38;;;17.41;69.75
11605;BME280;5858;43.076;25.626;2022-12-10T09:36:09;98291.13;;;17.78;69.46
11605;BME280;5858;43.076;25.626;2022-12-10T09:38:39;98292.56;;;17.85;69.06
11605;BME280;5858;43.076;25.626;2022-12-10T09:41:32;98315.13;;;17.96;68.59
11605;BME280;5858;43.076;25.626;2022-12-10T09:44:09;98341.34;;;18.17;68.86
11605;BME280;5858;43.076;25.626;2022-12-10T09:46:47;98296.59;;;18.10;67.45
11605;BME280;5858;43.076;25.626;2022-12-10T09:49:24;98305.63;;;18.20;69.48
11605;BME280;5858;43.076;25.626;2022-12-10T09:52:11;98293.81;;;18.32;67.86
11605;BME280;5858;43.076;25.626;2022-12-10T09:54:43;98281.38;;;18.36;65.87
11605;BME280;5858;43.076;25.626;2022-12-10T09:57:22;98286.13;;;18.50;66.90
11605;BME280;5858;43.076;25.626;2022-12-10T09:59:52;98280.19;;;18.53;67.34
11605;BME280;5858;43.076;25.626;2022-12-10T10:02:21;98252.16;;;18.38;67.90
11605;BME280;5858;43.076;25.626;2022-12-10T10:04:50;98260.13;;;18.49;66.85
11605;BME280;5858;43.076;25.626;2022-12-10T10:07:21;98260.16;;;18.54;65.87
11605;BME280;5858;43.076;25.626;2022-12-10T10:09:51;98253.00;;;18.43;67.39
11605;BME280;5858;43.076;25.626;2022-12-10T10:12:21;98247.72;;;18.59;64.58
11605;BME280;5858;43.076;25.626;2022-12-10T10:14:49;98236.03;;;18.53;65.17
11605;BME280;5858;43.076;25.626;2022-12-10T10:17:20;98234.47;;;18.62;63.94
11605;BME280;5858;43.076;25.626;2022-12-10T10:19:49;98256.25;;;18.77;64.67
11605;BME280;5858;43.076;25.626;2022-12-10T10:22:16;98233.16;;;18.65;63.06
11605;BME280;5858;43.076;25.626;2022-12-10T10:24:44;98191.63;;;18.59;63.42
11605;BME280;5858;43.076;25.626;2022-12-10T10:27:15;98214.88;;;18.92;62.57
11605;BME280;5858;43.076;25.626;2022-12-10T10:29:46;98232.59;;;19.15;62.29
11605;BME280;5858;43.076;25.626;2022-12-10T10:32:16;98226.09;;;19.21;63.83
11605;BME280;5858;43.076;25.626;2022-12-10T10:34:46;98235.03;;;19.16;63.42
11605;BME280;5858;43.076;25.626;2022-12-10T10:37:16;98204.34;;;19.01;63.57
11605;BME280;5858;43.076;25.626;2022-12-10T10:39:50;98077.94;;;18.27;60.35
11605;BME280;5858;43.076;25.626;2022-12-10T10:42:31;98107.16;;;18.67;61.02
11605;BME280;5858;43.076;25.626;2022-12-10T10:45:01;98138.13;;;18.86;61.74
11605;BME280;5858;43.076;25.626;2022-12-10T10:47:30;98132.97;;;18.90;60.30
11605;BME280;5858;43.076;25.626;2022-12-10T10:49:58;98200.38;;;19.39;59.76
11605;BME280;5858;43.076;25.626;2022-12-10T10:52:29;98197.44;;;19.50;57.02
11605;BME280;5858;43.076;25.626;2022-12-10T10:54:56;98153.13;;;19.14;54.88
11605;BME280;5858;43.076;25.626;2022-12-10T10:57:27;98152.59;;;19.28;57.40
11605;BME280;5858;43.076;25.626;2022-12-10T11:00:02;98195.31;;;19.58;56.73
11605;BME280;5858;43.076;25.626;2022-12-10T11:02:30;98196.63;;;19.50;58.67
11605;BME280;5858;43.076;25.626;2022-12-10T11:05:05;98136.03;;;19.09;56.80
11605;BME280;5858;43.076;25.626;2022-12-10T11:07:35;98151.25;;;19.30;57.78
11605;BME280;5858;43.076;25.626;2022-12-10T11:10:18;98178.22;;;19.57;55.89
11605;BME280;5858;43.076;25.626;2022-12-10T11:12:54;98182.56;;;19.63;55.26
11605;BME280;5858;43.076;25.626;2022-12-10T11:15:31;98126.84;;;19.30;55.07
11605;BME280;5858;43.076;25.626;2022-12-10T11:17:59;98152.94;;;19.46;56.64
11605;BME280;5858;43.076;25.626;2022-12-10T11:20:28;98173.59;;;19.63;55.24
11605;BME280;5858;43.076;25.626;2022-12-10T11:22:57;98172.25;;;19.65;55.12
11605;BME280;5858;43.076;25.626;2022-12-10T11:25:35;98142.09;;;19.46;56.60
11605;BME280;5858;43.076;25.626;2022-12-10T11:28:14;98166.81;;;19.55;57.09
11605;BME280;5858;43.076;25.626;2022-12-10T11:30:55;98165.47;;;19.58;57.78
11605;BME280;5858;43.076;25.626;2022-12-10T11:33:33;98082.09;;;19.23;54.99
11605;BME280;5858;43.076;25.626;2022-12-10T11:36:15;98119.88;;;19.55;55.78
11605;BME280;5858;43.076;25.626;2022-12-10T11:38:52;98141.84;;;19.58;56.55
11605;BME280;5858;43.076;25.626;2022-12-10T11:41:33;98138.31;;;19.63;56.38
11605;BME280;5858;43.076;25.626;2022-12-10T11:44:23;98150.53;;;19.70;55.76
11605;BME280;5858;43.076;25.626;2022-12-10T11:47:15;98085.63;;;19.28;56.46
11605;BME280;5858;43.076;25.626;2022-12-10T11:49:54;98120.09;;;19.43;55.63
11605;BME280;5858;43.076;25.626;2022-12-10T11:52:36;98108.66;;;19.26;55.75
11605;BME280;5858;43.076;25.626;2022-12-10T11:55:17;98153.75;;;19.52;56.25
11605;BME280;5858;43.076;25.626;2022-12-10T11:57:51;98124.69;;;19.27;56.28
11605;BME280;5858;43.076;25.626;2022-12-10T12:00:34;98134.50;;;19.43;56.44
11605;BME280;5858;43.076;25.626;2022-12-10T12:03:23;98064.97;;;18.97;56.57
11605;BME280;5858;43.076;25.626;2022-12-10T12:06:15;98139.38;;;19.41;56.15
11605;BME280;5858;43.076;25.626;2022-12-10T12:08:53;98111.94;;;19.28;56.94
11605;BME280;5858;43.076;25.626;2022-12-10T12:11:32;98081.25;;;18.97;56.13
11605;BME280;5858;43.076;25.626;2022-12-10T12:14:08;98089.69;;;19.15;57.14
11605;BME280;5858;43.076;25.626;2022-12-10T12:16:42;98044.34;;;18.85;57.33
11605;BME280;5858;43.076;25.626;2022-12-10T12:19:16;98067.97;;;19.15;55.85
11605;BME280;5858;43.076;25.626;2022-12-10T12:21:44;98049.28;;;19.14;56.70
11605;BME280;5858;43.076;25.626;2022-12-10T12:24:17;98119.06;;;19.59;56.19
11605;BME280;5858;43.076;25.626;2022-12-10T12:26:51;97981.97;;;18.70;57.05
11605;BME280;5858;43.076;25.626;2022-12-10T12:29:23;98093.22;;;19.21;55.02
11605;BME280;5858;43.076;25.626;2022-12-10T12:31:59;98089.97;;;19.24;56.33
11605;BME280;5858;43.076;25.626;2022-12-10T12:34:37;98033.75;;;18.89;56.11
11605;BME280;5858;43.076;25.626;2022-12-10T12:37:20;98023.44;;;18.66;57.13
11605;BME280;5858;43.076;25.626;2022-12-10T12:40:00;98004.19;;;18.62;56.12
11605;BME280;5858;43.076;25.626;2022-12-10T12:42:35;98049.53;;;18.92;56.49
11605;BME280;5858;43.076;25.626;2022-12-10T12:45:11;98099.44;;;19.16;58.01
11605;BME280;5858;43.076;25.626;2022-12-10T12:47:44;98025.31;;;18.65;57.85
11605;BME280;5858;43.076;25.626;2022-12-10T12:50:24;98099.97;;;19.08;58.68
11605;BME280;5858;43.076;25.626;2022-12-10T12:52:53;98041.06;;;18.73;58.84
11605;BME280;5858;43.076;25.626;2022-12-10T12:55:26;98087.16;;;18.83;59.89
11605;BME280;5858;43.076;25.626;2022-12-10T12:58:06;98116.50;;;18.97;60.64
11605;BME280;5858;43.076;25.626;2022-12-10T13:00:39;98047.19;;;18.48;60.57
11605;BME280;5858;43.076;25.626;2022-12-10T13:03:27;98096.06;;;18.69;60.10
11605;BME280;5858;43.076;25.626;2022-12-10T13:06:12;98078.38;;;18.56;60.55
11605;BME280;5858;43.076;25.626;2022-12-10T13:08:43;98034.06;;;18.25;61.23
11605;BME280;5858;43.076;25.626;2022-12-10T13:14:31;98100.66;;;18.73;60.54
11605;BME280;5858;43.076;25.626;2022-12-10T13:17:27;98053.34;;;18.39;61.90
11605;BME280;5858;43.076;25.626;2022-12-10T13:20:28;98087.91;;;18.64;61.80
11605;BME280;5858;43.076;25.626;2022-12-10T13:22:57;98015.63;;;18.12;62.37
11605;BME280;5858;43.076;25.626;2022-12-10T13:25:40;97958.88;;;17.75;62.45
11605;BME280;5858;43.076;25.626;2022-12-10T13:28:21;98096.78;;;18.54;61.45
11605;BME280;5858;43.076;25.626;2022-12-10T13:31:19;98072.31;;;18.39;62.58